This is the latest recevied weather packets stored in our database for station/object EA2RCU-15. If no packets are shown the sender has not sent any weather packets the latest 1 day(s).
| Time | Temp. | Humidity | Pressure | Rain* | Wind** | Luminosity | Snow |
|---|---|---|---|---|---|---|---|
| 1777982706 | 17.78° C | 51% | 997 hPa | 1.02 mm | 0 m/s | - | - |
| 1777982406 | 17.22° C | 54% | 997 hPa | 2.03 mm | 0 m/s | - | - |
| 1777982106 | 16.67° C | 58% | 997 hPa | 2.03 mm | 0 m/s | - | - |
| 1777981806 | 16.11° C | 60% | 997 hPa | 2.03 mm | 0 m/s | - | - |
| 1777981506 | 15.56° C | 64% | 997 hPa | 2.03 mm | 0 m/s | - | - |
| 1777981206 | 15° C | 65% | 997 hPa | 2.03 mm | 0 m/s | - | - |
| 1777980906 | 14.44° C | 65% | 997 hPa | 2.03 mm | 0 m/s | - | - |
| 1777980606 | 13.89° C | 66% | 997 hPa | 1.02 mm | 0 m/s | - | - |
| 1777980306 | 13.89° C | 65% | 997 hPa | 1.02 mm | 0 m/s | - | - |
| 1777980006 | 13.33° C | 64% | 997 hPa | 1.02 mm | 0 m/s | - | - |
| 1777979706 | 13.33° C | 63% | 997 hPa | 1.02 mm | 0.89 m/s, 283° | - | - |
| 1777979406 | 13.33° C | 64% | 997 hPa | 1.02 mm | 0.45 m/s, 347° | - | - |
| 1777979106 | 13.89° C | 62% | 997 hPa | 1.02 mm | 0.89 m/s, 324° | - | - |
| 1777978806 | 13.89° C | 57% | 997 hPa | 0 mm | 2.24 m/s, 332° | - | - |
| 1777978506 | 15° C | 49% | 997 hPa | 0 mm | 1.79 m/s, 307° | - | - |
| 1777978207 | 16.67° C | 41% | 997 hPa | 0 mm | 0.89 m/s, 308° | - | - |
| 1777977906 | 17.78° C | 43% | 997 hPa | 0 mm | 0 m/s | - | - |
| 1777977606 | 18.33° C | 43% | 997 hPa | 0 mm | 0 m/s | - | - |
| 1777977306 | 18.33° C | 44% | 997 hPa | 0 mm | 0 m/s | - | - |
| 1777977006 | 18.33° C | 45% | 997 hPa | 0 mm | 0 m/s | - | - |
| 1777976706 | 17.22° C | 45% | 997 hPa | 0 mm | 0 m/s | - | - |
| 1777976406 | 16.67° C | 43% | 997 hPa | 0 mm | 0 m/s | - | - |
| 1777976106 | 17.22° C | 39% | 997 hPa | 0 mm | 0 m/s | - | - |
| 1777975806 | 18.33° C | 35% | 997 hPa | 0 mm | 0 m/s | - | - |
| 1777975206 | 19.44° C | 35% | 997 hPa | 0 mm | 0 m/s | - | - |
* Rain latest hour (hover to see other rain measurements)
** Current wind speed in m/s (hover to see current wind gust speed)